createdAt,value
2023-03-12T00:02:17.704Z,97213.70
2023-03-12T00:04:46.286Z,97202.82
2023-03-12T00:07:14.429Z,97195.42
2023-03-12T00:09:43.622Z,97188.84
2023-03-12T00:12:13.509Z,97188.99
2023-03-12T00:14:41.929Z,97197.04
2023-03-12T00:17:09.868Z,97202.59
2023-03-12T00:19:37.964Z,97209.52
2023-03-12T00:22:06.110Z,97217.13
2023-03-12T00:24:34.219Z,97213.83
2023-03-12T00:27:02.316Z,97212.06
2023-03-12T00:29:31.327Z,97215.14
2023-03-12T00:31:59.395Z,97213.02
2023-03-12T00:34:27.746Z,97222.72
2023-03-12T00:36:56.089Z,97230.73
2023-03-12T00:39:24.061Z,97238.44
2023-03-12T00:41:52.141Z,97245.20
2023-03-12T00:44:20.644Z,97254.94
2023-03-12T00:46:48.979Z,97255.88
2023-03-12T00:49:17.448Z,97261.56
2023-03-12T00:51:45.484Z,97262.10
2023-03-12T00:54:13.435Z,97261.32
2023-03-12T00:56:41.510Z,97261.89
2023-03-12T00:59:09.954Z,97257.83
2023-03-12T01:01:37.989Z,97248.44
2023-03-12T01:04:07.564Z,97248.96
2023-03-12T01:06:36.896Z,97253.45
2023-03-12T01:09:06.176Z,97253.48
2023-03-12T01:11:34.371Z,97254.50
2023-03-12T01:14:02.571Z,97260.28
2023-03-12T01:16:30.696Z,97268.17
2023-03-12T01:18:59.462Z,97276.67
2023-03-12T01:21:28.053Z,97287.11
2023-03-12T01:23:56.134Z,97293.83
2023-03-12T01:26:24.550Z,97300.58
2023-03-12T01:28:52.758Z,97297.23
2023-03-12T01:31:20.802Z,97304.45
2023-03-12T01:33:50.544Z,97304.37
2023-03-12T01:36:22.547Z,97306.10
2023-03-12T01:38:51.152Z,97306.27
2023-03-12T01:41:19.521Z,97313.01
2023-03-12T01:43:47.757Z,97325.67
2023-03-12T01:46:26.228Z,97329.92
2023-03-12T01:49:09.329Z,97333.36
2023-03-12T01:51:45.910Z,97342.25
2023-03-12T01:54:16.321Z,97344.34
2023-03-12T01:56:44.489Z,97344.51
2023-03-12T01:59:25.734Z,97343.48
2023-03-12T02:01:53.810Z,97339.40
2023-03-12T02:04:22.594Z,97345.50
2023-03-12T02:07:15.016Z,97355.77
2023-03-12T02:09:45.677Z,97365.86
2023-03-12T02:12:15.137Z,97376.85
2023-03-12T02:14:43.181Z,97378.83
2023-03-12T02:17:13.987Z,97389.74
2023-03-12T02:20:01.211Z,97396.46
2023-03-12T02:22:29.755Z,97396.90
2023-03-12T02:25:04.000Z,97403.98
2023-03-12T02:27:33.536Z,97408.84
2023-03-12T02:30:02.055Z,97421.16
2023-03-12T02:32:36.314Z,97430.03
2023-03-12T02:35:05.948Z,97430.95
2023-03-12T02:37:33.902Z,97434.09
2023-03-12T02:40:10.537Z,97438.45
2023-03-12T02:42:38.749Z,97443.14
2023-03-12T02:45:09.154Z,97447.34
2023-03-12T02:47:37.823Z,97462.74
2023-03-12T02:50:06.225Z,97465.58
2023-03-12T02:52:36.343Z,97472.00
2023-03-12T02:55:10.905Z,97482.91
2023-03-12T02:57:39.237Z,97478.67
2023-03-12T03:00:12.629Z,97477.24
2023-03-12T03:02:41.671Z,97477.52
2023-03-12T03:05:10.153Z,97486.52
2023-03-12T03:07:40.072Z,97495.77
2023-03-12T03:10:08.577Z,97498.50
2023-03-12T03:12:37.028Z,97505.45
2023-03-12T03:15:07.030Z,97508.99
2023-03-12T03:17:36.882Z,97512.30
2023-03-12T03:20:11.388Z,97514.52
2023-03-12T03:22:43.429Z,97518.43
2023-03-12T03:25:12.491Z,97519.08
2023-03-12T03:27:40.940Z,97522.80
2023-03-12T03:30:09.756Z,97528.14
2023-03-12T03:32:40.422Z,97521.87
2023-03-12T03:35:14.506Z,97530.73
2023-03-12T03:37:44.537Z,97532.84
2023-03-12T03:40:12.863Z,97538.39
2023-03-12T03:42:41.555Z,97546.80
2023-03-12T03:45:10.596Z,97548.19
2023-03-12T03:47:40.336Z,97554.81
2023-03-12T03:50:08.978Z,97562.04
2023-03-12T03:52:37.124Z,97565.57
2023-03-12T03:55:06.169Z,97570.36
2023-03-12T03:57:34.406Z,97573.74
2023-03-12T04:00:09.112Z,97574.56
2023-03-12T04:02:42.090Z,97578.77
2023-03-12T04:05:12.374Z,97586.16
2023-03-12T04:07:43.240Z,97595.30
2023-03-12T04:10:12.240Z,97603.56
2023-03-12T04:12:41.806Z,97613.10
2023-03-12T04:15:10.337Z,97624.69
2023-03-12T04:17:39.971Z,97630.92
2023-03-12T04:20:10.538Z,97638.40
2023-03-12T04:22:41.414Z,97638.91
2023-03-12T04:25:11.083Z,97652.70
2023-03-12T04:27:39.278Z,97660.64
2023-03-12T04:30:07.723Z,97670.13
2023-03-12T04:32:36.529Z,97674.38
2023-03-12T04:35:05.704Z,97684.69
2023-03-12T04:37:34.254Z,97696.33
2023-03-12T04:40:04.976Z,97713.71
2023-03-12T04:42:36.849Z,97718.23
2023-03-12T04:45:06.388Z,97724.16
2023-03-12T04:47:36.367Z,97731.05
2023-03-12T04:50:05.015Z,97735.42
2023-03-12T04:52:33.460Z,97732.48
2023-03-12T04:55:02.094Z,97733.84
2023-03-12T04:57:30.347Z,97738.95
2023-03-12T04:59:59.525Z,97738.58
2023-03-12T05:02:28.640Z,97737.16
2023-03-12T05:04:57.579Z,97748.85
2023-03-12T05:07:26.059Z,97746.92
2023-03-12T05:09:58.446Z,97748.30
2023-03-12T05:12:26.930Z,97749.66
2023-03-12T05:14:55.197Z,97756.48
2023-03-12T05:17:23.673Z,97762.86
2023-03-12T05:19:52.020Z,97766.60
2023-03-12T05:22:20.327Z,97772.93
2023-03-12T05:24:48.376Z,97783.40
2023-03-12T05:27:16.452Z,97794.75
2023-03-12T05:29:44.586Z,97807.05
2023-03-12T05:32:12.736Z,97815.61
2023-03-12T05:34:41.522Z,97816.84
2023-03-12T05:37:09.583Z,97827.14
2023-03-12T05:39:38.227Z,97832.29
2023-03-12T05:42:06.638Z,97843.55
2023-03-12T05:44:36.021Z,97844.23
2023-03-12T05:47:04.506Z,97859.86
2023-03-12T05:49:33.304Z,97861.60
2023-03-12T05:52:01.478Z,97873.81
2023-03-12T05:54:30.064Z,97885.44
2023-03-12T05:56:58.203Z,97886.52
2023-03-12T05:59:27.749Z,97901.30
2023-03-12T06:01:56.221Z,97909.44
2023-03-12T06:04:24.673Z,97915.95
2023-03-12T06:06:54.496Z,97929.98
2023-03-12T06:09:22.992Z,97936.06
2023-03-12T06:11:51.275Z,97946.73
2023-03-12T06:14:20.189Z,97951.89
2023-03-12T06:16:51.468Z,97961.95
2023-03-12T06:19:20.098Z,97966.28
2023-03-12T06:21:55.453Z,97973.20
2023-03-12T06:24:23.658Z,97982.85
2023-03-12T06:27:00.012Z,97995.13
2023-03-12T06:29:28.125Z,97990.30
2023-03-12T06:31:56.442Z,98004.89
2023-03-12T06:34:30.629Z,98016.30
2023-03-12T06:38:38.016Z,98023.27
2023-03-12T06:41:08.892Z,98037.80
2023-03-12T06:43:37.370Z,98045.05
2023-03-12T06:46:12.868Z,98053.41
2023-03-12T06:48:42.156Z,98062.28
2023-03-12T06:51:11.100Z,98067.55
2023-03-12T06:53:42.504Z,98071.31
2023-03-12T06:56:11.304Z,98077.49
2023-03-12T06:58:41.050Z,98085.88
2023-03-12T07:01:09.630Z,98093.06
2023-03-12T07:03:38.141Z,98108.87
2023-03-12T07:06:12.490Z,98116.17
2023-03-12T07:08:41.982Z,98122.17
2023-03-12T07:11:10.508Z,98126.65
2023-03-12T07:13:39.013Z,98136.21
2023-03-12T07:16:07.823Z,98141.92
2023-03-12T07:18:37.206Z,98140.63
2023-03-12T07:21:05.978Z,98148.95
2023-03-12T07:23:41.418Z,98149.53
2023-03-12T07:26:09.866Z,98157.64
2023-03-12T07:28:38.110Z,98159.57
2023-03-12T07:31:07.694Z,98171.59
2023-03-12T07:33:36.064Z,98172.95
2023-03-12T07:36:05.028Z,98176.42
2023-03-12T07:38:33.380Z,98183.88
2023-03-12T07:41:01.789Z,98186.52
2023-03-12T07:43:30.218Z,98185.38
2023-03-12T07:45:59.061Z,98193.94
2023-03-12T07:48:29.884Z,98196.63
2023-03-12T07:50:58.000Z,98200.86
2023-03-12T07:53:26.268Z,98210.23
2023-03-12T07:55:55.060Z,98223.63
2023-03-12T07:58:23.552Z,98225.16
2023-03-12T08:00:53.737Z,98229.79
2023-03-12T08:03:22.355Z,98235.52
2023-03-12T08:05:58.134Z,98241.11
2023-03-12T08:08:27.591Z,98253.15
2023-03-12T08:10:55.920Z,98253.86
2023-03-12T08:13:24.459Z,98252.35
2023-03-12T08:15:56.846Z,98260.23
2023-03-12T08:18:28.763Z,98262.88
2023-03-12T08:20:59.328Z,98262.16
2023-03-12T08:23:27.645Z,98274.02
2023-03-12T08:25:55.753Z,98284.65
2023-03-12T08:28:24.496Z,98289.36
2023-03-12T08:30:54.330Z,98295.52
2023-03-12T08:33:23.674Z,98299.45
2023-03-12T08:35:51.898Z,98304.56
2023-03-12T08:38:20.627Z,98310.85
2023-03-12T08:40:56.140Z,98320.98
2023-03-12T08:43:25.039Z,98330.73
2023-03-12T08:46:02.891Z,98337.34
2023-03-12T08:48:31.748Z,98341.28
2023-03-12T08:51:04.192Z,98334.55
2023-03-12T08:53:34.413Z,98342.06
2023-03-12T08:56:04.492Z,98347.78
2023-03-12T08:58:32.965Z,98355.83
2023-03-12T09:01:01.265Z,98359.27
2023-03-12T09:03:30.014Z,98360.84
2023-03-12T09:06:13.079Z,98369.23
2023-03-12T09:08:51.731Z,98376.22
2023-03-12T09:11:21.046Z,98381.41
2023-03-12T09:16:39.253Z,98384.33
2023-03-12T09:19:07.701Z,98388.20
2023-03-12T09:21:38.312Z,98396.89
2023-03-12T09:24:07.897Z,98400.02
2023-03-12T09:26:36.240Z,98405.52
2023-03-12T09:29:06.696Z,98411.40
2023-03-12T09:31:36.351Z,98412.94
2023-03-12T09:34:06.673Z,98412.30
2023-03-12T09:36:35.923Z,98413.84
2023-03-12T09:39:05.186Z,98415.32
2023-03-12T09:41:36.347Z,98406.32
2023-03-12T09:44:14.104Z,98419.87
2023-03-12T09:46:51.020Z,98427.40
2023-03-12T09:49:40.629Z,98427.65
2023-03-12T09:52:39.948Z,98438.55
2023-03-12T09:55:17.415Z,98447.98
2023-03-12T09:57:51.481Z,98448.54
2023-03-12T10:00:31.010Z,98449.95
2023-03-12T10:03:21.386Z,98455.64
2023-03-12T10:06:20.851Z,98458.20
2023-03-12T10:08:55.406Z,98467.30
2023-03-12T10:11:28.192Z,98466.13
2023-03-12T10:14:08.152Z,98469.17
2023-03-12T10:16:50.905Z,98479.93
2023-03-12T10:19:42.506Z,98486.41
2023-03-12T10:22:41.423Z,98490.29
2023-03-12T10:25:37.027Z,98497.89
2023-03-12T10:28:21.994Z,98498.17
2023-03-12T10:30:58.649Z,98499.06
2023-03-12T10:33:37.438Z,98497.78
2023-03-12T10:36:15.633Z,98500.92
2023-03-12T10:38:48.496Z,98497.30
2023-03-12T10:41:25.410Z,98495.23
2023-03-12T10:43:56.284Z,98496.20
2023-03-12T10:46:44.773Z,98494.73
2023-03-12T10:49:22.374Z,98497.00
2023-03-12T10:52:17.329Z,98495.84
2023-03-12T10:54:51.768Z,98491.02
2023-03-12T10:57:21.154Z,98492.55
2023-03-12T10:59:50.989Z,98487.89
2023-03-12T11:02:35.362Z,98486.58
2023-03-12T11:05:07.455Z,98485.72
2023-03-12T11:07:36.395Z,98489.91
2023-03-12T11:10:08.283Z,98491.30
2023-03-12T11:12:40.546Z,98496.33
2023-03-12T11:15:24.501Z,98494.70
2023-03-12T11:17:52.793Z,98499.18
2023-03-12T11:20:25.056Z,98498.73
2023-03-12T11:22:54.750Z,98493.37
2023-03-12T11:25:28.144Z,98494.10
2023-03-12T11:27:59.606Z,98502.67
2023-03-12T11:30:41.454Z,98498.73
2023-03-12T11:33:10.974Z,98493.86
2023-03-12T11:35:44.161Z,98497.52
2023-03-12T11:38:22.043Z,98503.16
2023-03-12T11:41:06.113Z,98498.80
2023-03-12T11:43:43.174Z,98495.32
2023-03-12T11:46:30.400Z,98501.56
2023-03-12T11:49:13.934Z,98497.52
2023-03-12T11:52:10.357Z,98503.39
2023-03-12T11:54:53.991Z,98508.55
2023-03-12T11:57:45.273Z,98507.71
2023-03-12T12:00:21.889Z,98515.84
2023-03-12T12:03:15.655Z,98522.43
2023-03-12T12:05:59.321Z,98520.75
2023-03-12T12:08:52.670Z,98525.41
2023-03-12T12:11:21.035Z,98532.91
2023-03-12T12:14:43.770Z,98538.66
2023-03-12T12:17:25.997Z,98545.02
2023-03-12T12:20:10.111Z,98547.00
2023-03-12T12:22:51.211Z,98549.98
2023-03-12T12:25:45.349Z,98548.34
2023-03-12T12:28:22.736Z,98558.59
2023-03-12T12:31:36.289Z,98567.27
2023-03-12T12:34:25.559Z,98569.61
2023-03-12T12:37:03.104Z,98572.10
2023-03-12T12:39:36.895Z,98575.71
2023-03-12T12:42:07.049Z,98576.20
2023-03-12T12:44:39.398Z,98582.94
2023-03-12T12:47:13.226Z,98584.90
2023-03-12T12:49:52.399Z,98594.96
2023-03-12T12:52:21.488Z,98604.10
2023-03-12T12:55:05.501Z,98602.90
2023-03-12T12:57:58.519Z,98608.94
2023-03-12T13:00:46.595Z,98611.30
2023-03-12T13:03:17.711Z,98615.19
2023-03-12T13:06:03.127Z,98616.19
2023-03-12T13:08:44.192Z,98621.44
2023-03-12T13:11:20.024Z,98624.64
2023-03-12T13:14:04.680Z,98632.55
2023-03-12T13:16:46.656Z,98632.85
2023-03-12T13:19:14.974Z,98636.33
2023-03-12T13:22:15.391Z,98640.42
2023-03-12T13:25:10.402Z,98645.61
2023-03-12T13:27:40.993Z,98641.23
2023-03-12T13:30:34.193Z,98639.95
2023-03-12T13:33:06.639Z,98635.84
2023-03-12T13:35:39.347Z,98642.19
2023-03-12T13:38:12.952Z,98638.20
2023-03-12T13:41:01.957Z,98638.45
2023-03-12T13:43:49.819Z,98639.11
2023-03-12T13:46:18.062Z,98641.53
2023-03-12T13:48:47.967Z,98641.73
2023-03-12T13:51:20.936Z,98642.73
2023-03-12T13:53:59.734Z,98643.48
2023-03-12T13:56:30.118Z,98647.55
2023-03-12T13:59:03.708Z,98642.92
2023-03-12T14:01:36.134Z,98638.35
2023-03-12T14:04:12.351Z,98637.66
2023-03-12T14:12:01.627Z,98644.13
2023-03-12T14:15:02.182Z,98647.38
2023-03-12T14:17:31.386Z,98656.09
2023-03-12T14:20:04.506Z,98666.02
2023-03-12T14:22:35.423Z,98673.94
2023-03-12T14:25:25.914Z,98679.49
2023-03-12T14:27:55.158Z,98688.72
2023-03-12T14:30:25.665Z,98693.02
2023-03-12T14:32:56.295Z,98696.46
2023-03-12T14:36:09.571Z,98703.83
2023-03-12T14:38:39.726Z,98714.99
2023-03-12T14:41:13.425Z,98744.55
2023-03-12T14:43:42.725Z,98745.99
2023-03-12T14:46:20.233Z,98741.37
2023-03-12T14:48:54.958Z,98743.09
2023-03-12T14:51:28.996Z,98736.19
2023-03-12T14:54:01.941Z,98733.95
2023-03-12T14:56:35.403Z,98741.05
2023-03-12T14:59:31.026Z,98746.11
2023-03-12T15:02:21.452Z,98756.65
2023-03-12T15:04:52.940Z,98762.38
2023-03-12T15:07:35.341Z,98757.50
2023-03-12T15:10:17.552Z,98757.48
2023-03-12T15:12:47.030Z,98761.48
2023-03-12T15:15:46.371Z,98758.05
2023-03-12T15:18:27.365Z,98766.84
2023-03-12T15:20:57.239Z,98765.72
2023-03-12T15:23:27.324Z,98774.10
2023-03-12T15:26:13.143Z,98782.27
2023-03-12T15:28:42.572Z,98773.20
2023-03-12T15:31:14.019Z,98776.31
2023-03-12T15:33:46.601Z,98774.70
2023-03-12T15:36:17.588Z,98773.67
2023-03-12T15:38:47.690Z,98771.48
2023-03-12T15:41:42.845Z,98777.05
2023-03-12T15:44:18.968Z,98773.73
2023-03-12T15:46:48.803Z,98780.63
2023-03-12T15:49:27.559Z,98777.46
2023-03-12T15:52:03.220Z,98777.23
2023-03-12T15:54:33.722Z,98780.40
2023-03-12T15:57:18.834Z,98782.91
2023-03-12T16:00:08.308Z,98792.77
2023-03-12T16:02:53.686Z,98798.92
2023-03-12T16:05:33.314Z,98805.89
2023-03-12T16:08:03.249Z,98808.14
2023-03-12T16:10:32.656Z,98809.27
2023-03-12T16:13:02.592Z,98812.95
2023-03-12T16:15:33.967Z,98822.64
2023-03-12T16:18:03.478Z,98828.96
2023-03-12T16:20:31.795Z,98887.16
2023-03-12T16:23:01.740Z,98908.70
2023-03-12T16:25:29.917Z,98894.61
2023-03-12T16:27:58.982Z,98907.84
2023-03-12T16:30:35.824Z,98915.35
2023-03-12T16:33:08.766Z,98916.48
2023-03-12T16:35:38.603Z,98928.27
2023-03-12T16:38:07.838Z,98930.83
2023-03-12T16:40:38.976Z,98939.54
2023-03-12T16:43:08.173Z,98948.84
2023-03-12T16:45:36.622Z,98958.38
2023-03-12T16:48:06.837Z,98962.26
2023-03-12T16:50:35.097Z,98957.27
2023-03-12T16:53:03.872Z,98977.17
2023-03-12T16:55:43.560Z,98985.60
2023-03-12T16:58:17.618Z,98991.22
2023-03-12T17:00:47.292Z,98997.86
2023-03-12T17:03:36.382Z,99001.92
2023-03-12T17:06:08.340Z,99008.85
2023-03-12T17:08:36.963Z,99015.17
2023-03-12T17:11:25.759Z,99020.70
2023-03-12T17:13:58.685Z,99026.80
2023-03-12T17:16:28.095Z,99030.30
2023-03-12T17:18:57.021Z,99038.61
2023-03-12T17:21:25.791Z,99039.48
2023-03-12T17:23:54.139Z,99045.80
2023-03-12T17:26:22.760Z,99051.50
2023-03-12T17:28:50.849Z,99058.98
2023-03-12T17:31:21.438Z,99066.45
2023-03-12T17:33:50.699Z,99075.08
2023-03-12T17:36:20.561Z,99078.16
2023-03-12T17:38:51.007Z,99084.77
2023-03-12T17:41:26.560Z,99086.16
2023-03-12T17:43:59.885Z,99091.89
2023-03-12T17:46:29.535Z,99097.80
2023-03-12T17:49:02.592Z,99105.48
2023-03-12T17:51:30.868Z,99105.74
2023-03-12T17:53:58.920Z,99110.27
2023-03-12T17:56:27.497Z,99117.65
2023-03-12T17:58:55.669Z,99121.48
2023-03-12T18:01:24.260Z,99127.67
2023-03-12T18:03:53.039Z,99122.54
2023-03-12T18:06:25.799Z,99126.41
2023-03-12T18:08:56.405Z,99128.40
2023-03-12T18:11:25.073Z,99129.31
2023-03-12T18:13:54.403Z,99134.70
2023-03-12T18:16:23.901Z,99136.27
2023-03-12T18:18:52.883Z,99139.94
2023-03-12T18:21:21.790Z,99142.15
2023-03-12T18:23:50.488Z,99141.97
2023-03-12T18:26:19.699Z,99147.69
2023-03-12T18:28:49.600Z,99147.75
2023-03-12T18:31:17.897Z,99150.42
2023-03-12T18:33:46.154Z,99156.23
2023-03-12T18:36:14.471Z,99157.97
2023-03-12T18:38:44.084Z,99160.16
2023-03-12T18:41:13.292Z,99164.23
2023-03-12T18:43:41.844Z,99167.43
2023-03-12T18:46:11.570Z,99170.09
2023-03-12T18:48:41.413Z,99170.77
2023-03-12T18:51:12.068Z,99179.09
2023-03-12T18:53:40.402Z,99177.39
2023-03-12T18:56:14.099Z,99181.65
2023-03-12T18:58:42.459Z,99186.66
2023-03-12T19:01:12.113Z,99188.33
2023-03-12T19:03:40.802Z,99191.34
2023-03-12T19:06:11.862Z,99194.13
2023-03-12T19:08:47.930Z,99201.17
2023-03-12T19:11:16.871Z,99203.12
2023-03-12T19:13:45.428Z,99210.94
2023-03-12T19:16:22.040Z,99215.64
2023-03-12T19:18:50.953Z,99217.96
2023-03-12T19:21:19.045Z,99227.48
2023-03-12T19:23:47.295Z,99237.23
2023-03-12T19:26:16.470Z,99245.02
2023-03-12T19:28:44.703Z,99248.33
2023-03-12T19:31:15.280Z,99252.24
2023-03-12T19:33:44.798Z,99254.94
2023-03-12T19:36:13.879Z,99262.42
2023-03-12T19:38:42.581Z,99267.16
2023-03-12T19:41:14.902Z,99267.15
2023-03-12T19:43:44.576Z,99268.97
2023-03-12T19:46:13.131Z,99272.84
2023-03-12T19:48:42.219Z,99276.56
2023-03-12T19:51:11.224Z,99281.91
2023-03-12T19:53:40.182Z,99278.86
2023-03-12T19:56:08.369Z,99284.52
2023-03-12T19:58:38.390Z,99287.91
2023-03-12T20:01:06.689Z,99289.41
2023-03-12T20:03:35.037Z,99301.97
2023-03-12T20:06:04.231Z,99304.45
2023-03-12T20:08:32.765Z,99306.92
2023-03-12T20:11:03.477Z,99319.63
2023-03-12T20:13:33.721Z,99329.74
2023-03-12T20:16:02.210Z,99335.14
2023-03-12T20:18:38.209Z,99335.75
2023-03-12T20:21:06.647Z,99339.64
2023-03-12T20:23:34.965Z,99357.14
2023-03-12T20:26:03.667Z,99366.22
2023-03-12T20:28:33.059Z,99382.30
2023-03-12T20:31:12.384Z,99390.02
2023-03-12T20:33:43.230Z,99392.91
2023-03-12T20:36:12.577Z,99403.20
2023-03-12T20:38:41.590Z,99406.20
2023-03-12T20:41:14.215Z,99406.95
2023-03-12T20:43:42.669Z,99410.02
2023-03-12T20:46:12.136Z,99415.82
2023-03-12T20:48:43.690Z,99413.84
2023-03-12T20:51:11.859Z,99412.41
2023-03-12T20:53:39.953Z,99413.06
2023-03-12T20:56:08.640Z,99422.19
2023-03-12T20:58:37.020Z,99421.29
2023-03-12T21:01:07.345Z,99421.04
2023-03-12T21:03:35.661Z,99418.08
2023-03-12T21:06:04.492Z,99426.33
2023-03-12T21:08:34.387Z,99422.44
2023-03-12T21:11:06.200Z,99414.26
2023-03-12T21:13:38.515Z,99415.61
2023-03-12T21:16:07.760Z,99425.85
2023-03-12T21:18:36.150Z,99419.52
2023-03-12T21:21:07.804Z,99416.64
2023-03-12T21:23:36.590Z,99420.55
2023-03-12T21:26:08.976Z,99423.49
2023-03-12T21:28:38.852Z,99424.34
2023-03-12T21:31:08.940Z,99431.85
2023-03-12T21:33:38.085Z,99430.57
2023-03-12T21:36:07.470Z,99433.70
2023-03-12T21:38:36.508Z,99434.44
2023-03-12T21:41:09.752Z,99433.09
2023-03-12T21:43:38.075Z,99435.09
2023-03-12T21:46:08.265Z,99432.41
2023-03-12T21:48:36.735Z,99431.02
2023-03-12T21:51:07.383Z,99438.59
2023-03-12T21:53:36.986Z,99444.13
2023-03-12T21:56:06.453Z,99452.79
2023-03-12T21:58:35.188Z,99458.91
2023-03-12T22:01:11.161Z,99459.93
2023-03-12T22:03:41.394Z,99462.02
2023-03-12T22:06:10.229Z,99465.38
2023-03-12T22:08:41.197Z,99473.53
2023-03-12T22:11:10.878Z,99478.96
2023-03-12T22:13:39.154Z,99486.64
2023-03-12T22:16:12.158Z,99493.38
2023-03-12T22:18:44.101Z,99498.80
2023-03-12T22:21:14.881Z,99502.06
2023-03-12T22:23:43.045Z,99507.73
2023-03-12T22:26:11.162Z,99517.42
2023-03-12T22:28:48.230Z,99524.20
2023-03-12T22:31:16.657Z,99531.55
2023-03-12T22:33:44.945Z,99538.17
2023-03-12T22:36:13.789Z,99543.91
2023-03-12T22:38:42.313Z,99545.85
2023-03-12T22:41:28.947Z,99552.06
2023-03-12T22:44:02.279Z,99557.94
2023-03-12T22:46:35.511Z,99561.37
2023-03-12T22:49:05.059Z,99565.81
2023-03-12T22:51:34.420Z,99574.55
2023-03-12T22:54:02.930Z,99576.02
2023-03-12T22:56:31.418Z,99576.80
2023-03-12T22:59:00.431Z,99583.07
2023-03-12T23:01:29.159Z,99590.08
2023-03-12T23:03:57.566Z,99598.35
2023-03-12T23:06:26.671Z,99601.58
2023-03-12T23:08:55.214Z,99604.65
2023-03-12T23:11:29.568Z,99608.54
2023-03-12T23:13:57.806Z,99616.92
2023-03-12T23:16:26.251Z,99617.42
2023-03-12T23:18:56.634Z,99618.12
2023-03-12T23:21:25.357Z,99620.85
2023-03-12T23:23:54.144Z,99625.79
2023-03-12T23:26:27.051Z,99630.95
2023-03-12T23:28:55.805Z,99633.63
2023-03-12T23:31:28.169Z,99634.57
2023-03-12T23:33:58.453Z,99632.05
2023-03-12T23:36:32.016Z,99637.46
2023-03-12T23:39:00.549Z,99637.52
2023-03-12T23:41:31.892Z,99636.75
2023-03-12T23:44:02.263Z,99638.40
2023-03-12T23:46:31.090Z,99646.77
2023-03-12T23:49:00.004Z,99648.70
2023-03-12T23:51:30.942Z,99653.81
2023-03-12T23:54:02.134Z,99653.32
2023-03-12T23:56:38.095Z,99660.94
2023-03-12T23:59:07.973Z,99660.23
